createdAt,value
2019-02-16T00:00:14.089Z,24.50
2019-02-16T00:03:06.866Z,24.50
2019-02-16T00:05:58.413Z,24.50
2019-02-16T00:08:50.209Z,24.50
2019-02-16T00:11:42.078Z,24.50
2019-02-16T00:14:34.170Z,24.40
2019-02-16T00:17:25.793Z,24.40
2019-02-16T00:20:17.614Z,24.30
2019-02-16T00:23:09.567Z,24.20
2019-02-16T00:26:01.116Z,24.10
2019-02-16T00:28:53.175Z,24.10
2019-02-16T00:31:45.356Z,24.10
2019-02-16T00:34:37.238Z,24.20
2019-02-16T00:37:29.111Z,24.10
2019-02-16T00:40:22.113Z,24.20
2019-02-16T00:43:13.951Z,24.30
2019-02-16T00:46:05.921Z,24.20
2019-02-16T00:48:57.763Z,24.20
2019-02-16T00:51:49.893Z,24.20
2019-02-16T00:54:42.060Z,24.10
2019-02-16T00:57:33.959Z,24.00
2019-02-16T01:00:26.395Z,24.00
2019-02-16T01:03:18.385Z,24.00
2019-02-16T01:06:10.425Z,24.00
2019-02-16T01:09:02.419Z,23.90
2019-02-16T01:11:55.385Z,23.90
2019-02-16T01:14:47.337Z,23.90
2019-02-16T01:17:39.295Z,24.00
2019-02-16T01:20:31.054Z,24.00
2019-02-16T01:23:22.775Z,24.00
2019-02-16T01:26:14.592Z,24.00
2019-02-16T01:29:06.772Z,23.90
2019-02-16T01:31:58.920Z,23.90
2019-02-16T01:34:50.856Z,24.00
2019-02-16T01:37:42.862Z,24.10
2019-02-16T01:40:34.567Z,24.00
2019-02-16T01:43:26.338Z,24.00
2019-02-16T01:46:18.298Z,24.10
2019-02-16T01:49:10.290Z,24.10
2019-02-16T01:52:02.194Z,24.10
2019-02-16T01:54:54.078Z,24.10
2019-02-16T01:57:45.998Z,24.20
2019-02-16T02:00:38.002Z,24.20
2019-02-16T02:03:29.696Z,24.20
2019-02-16T02:06:21.578Z,24.10
2019-02-16T02:09:13.784Z,24.20
2019-02-16T02:12:09.887Z,24.20
2019-02-16T02:15:24.052Z,24.10
2019-02-16T02:18:29.539Z,24.00
2019-02-16T02:21:26.537Z,23.90
2019-02-16T02:24:48.163Z,23.80
2019-02-16T02:28:09.514Z,23.80
2019-02-16T02:31:10.022Z,23.80
2019-02-16T02:34:01.929Z,23.70
2019-02-16T02:36:54.132Z,23.70
2019-02-16T02:39:46.264Z,23.60
2019-02-16T02:42:38.453Z,23.70
2019-02-16T02:45:31.387Z,23.70
2019-02-16T02:48:23.726Z,23.60
2019-02-16T02:51:15.817Z,23.70
2019-02-16T02:54:08.210Z,23.70
2019-02-16T02:57:00.203Z,23.80
2019-02-16T02:59:52.458Z,23.80
2019-02-16T03:02:44.383Z,23.90
2019-02-16T03:05:36.263Z,23.90
2019-02-16T03:08:28.254Z,23.90
2019-02-16T03:11:22.472Z,24.00
2019-02-16T03:14:14.200Z,24.00
2019-02-16T03:17:06.389Z,24.00
2019-02-16T03:19:58.627Z,24.00
2019-02-16T03:23:07.537Z,24.00
2019-02-16T03:26:07.748Z,24.10
2019-02-16T03:29:05.300Z,24.10
2019-02-16T03:32:33.652Z,24.10
2019-02-16T03:35:52.834Z,24.10
2019-02-16T03:38:49.276Z,24.10
2019-02-16T03:41:41.631Z,24.10
2019-02-16T03:44:33.613Z,24.00
2019-02-16T03:47:26.045Z,24.10
2019-02-16T03:50:18.226Z,24.10
2019-02-16T03:53:13.114Z,24.10
2019-02-16T03:56:05.047Z,24.10
2019-02-16T03:58:57.169Z,24.20
2019-02-16T04:01:49.338Z,24.20
2019-02-16T04:04:42.023Z,24.20
2019-02-16T04:07:35.296Z,24.30
2019-02-16T04:10:28.790Z,24.30
2019-02-16T04:13:20.706Z,24.30
2019-02-16T04:16:12.879Z,24.30
2019-02-16T04:19:04.855Z,24.30
2019-02-16T04:21:57.576Z,24.40
2019-02-16T04:24:49.555Z,24.40
2019-02-16T04:27:42.163Z,24.40
2019-02-16T04:30:34.426Z,24.40
2019-02-16T04:33:26.851Z,24.40
2019-02-16T04:36:19.137Z,24.40
2019-02-16T04:39:11.855Z,24.40
2019-02-16T04:42:04.291Z,24.40
2019-02-16T04:44:56.903Z,24.40
2019-02-16T04:47:49.352Z,24.40
2019-02-16T04:50:42.317Z,24.50
2019-02-16T04:53:34.410Z,24.40
2019-02-16T04:56:26.625Z,24.40
2019-02-16T04:59:18.743Z,24.50
2019-02-16T05:02:10.961Z,24.50
2019-02-16T05:05:03.029Z,24.40
2019-02-16T05:07:55.229Z,24.50
2019-02-16T05:10:47.518Z,24.50
2019-02-16T05:13:39.309Z,24.50
2019-02-16T05:16:31.508Z,24.50
2019-02-16T05:19:23.689Z,24.50
2019-02-16T05:22:17.494Z,24.50
2019-02-16T05:25:09.515Z,24.50
2019-02-16T05:28:02.082Z,24.50
2019-02-16T05:30:54.945Z,24.50
2019-02-16T05:33:50.635Z,24.50
2019-02-16T05:36:43.825Z,24.50
2019-02-16T05:39:40.655Z,24.50
2019-02-16T05:42:32.963Z,24.50
2019-02-16T05:45:25.481Z,24.50
2019-02-16T05:48:17.327Z,24.50
2019-02-16T05:51:11.486Z,24.50
2019-02-16T05:54:03.573Z,24.50
2019-02-16T05:56:59.406Z,24.50
2019-02-16T05:59:53.879Z,24.50
2019-02-16T06:02:46.013Z,24.50
2019-02-16T06:05:37.912Z,24.50
2019-02-16T06:08:30.109Z,24.50
2019-02-16T06:11:23.024Z,24.50
2019-02-16T06:14:15.759Z,24.50
2019-02-16T06:17:09.387Z,24.50
2019-02-16T06:20:01.622Z,24.50
2019-02-16T06:23:03.467Z,24.50
2019-02-16T06:25:48.328Z,24.50
2019-02-16T06:28:42.475Z,24.50
2019-02-16T06:31:36.168Z,24.50
2019-02-16T06:34:29.578Z,24.50
2019-02-16T06:37:26.903Z,24.50
2019-02-16T06:40:21.012Z,24.50
2019-02-16T06:43:14.486Z,24.50
2019-02-16T06:46:08.324Z,24.50
2019-02-16T06:49:01.002Z,24.50
2019-02-16T06:51:55.712Z,24.60
2019-02-16T06:54:49.399Z,24.60
2019-02-16T06:57:44.742Z,24.60
2019-02-16T07:00:38.519Z,24.60
2019-02-16T07:03:33.685Z,24.60
2019-02-16T07:06:28.684Z,24.60
2019-02-16T07:09:20.826Z,24.60
2019-02-16T07:12:13.015Z,24.60
2019-02-16T07:15:04.948Z,24.60
2019-02-16T07:18:13.408Z,24.60
2019-02-16T07:21:05.724Z,24.60
2019-02-16T07:23:57.667Z,24.60
2019-02-16T07:26:50.599Z,24.60
2019-02-16T07:29:44.338Z,24.60
2019-02-16T07:32:37.097Z,24.60
2019-02-16T07:35:29.302Z,24.60
2019-02-16T07:38:21.602Z,24.60
2019-02-16T07:41:13.818Z,24.60
2019-02-16T07:44:21.312Z,24.60
2019-02-16T07:47:22.988Z,24.60
2019-02-16T07:50:23.409Z,24.60
2019-02-16T07:53:31.156Z,24.60
2019-02-16T07:56:30.087Z,24.60
2019-02-16T07:59:28.251Z,24.60
2019-02-16T08:02:54.547Z,24.60
2019-02-16T08:06:02.891Z,24.60
2019-02-16T08:09:16.875Z,24.60
2019-02-16T08:12:34.647Z,24.60
2019-02-16T08:15:47.948Z,24.60
2019-02-16T08:19:11.601Z,24.60
2019-02-16T08:22:11.388Z,24.60
2019-02-16T08:25:30.092Z,24.60
2019-02-16T08:28:33.019Z,24.60
2019-02-16T08:31:50.117Z,24.60
2019-02-16T08:34:51.411Z,24.60
2019-02-16T08:38:02.124Z,24.60
2019-02-16T08:41:25.600Z,24.60
2019-02-16T08:44:26.120Z,24.60
2019-02-16T08:47:35.893Z,24.60
2019-02-16T08:51:01.386Z,24.60
2019-02-16T08:54:10.063Z,24.60
2019-02-16T08:57:24.694Z,24.60
2019-02-16T09:00:48.191Z,24.60
2019-02-16T09:03:54.852Z,24.60
2019-02-16T09:06:57.603Z,24.70
2019-02-16T09:10:23.600Z,24.60
2019-02-16T09:13:37.682Z,24.60
2019-02-16T09:16:54.328Z,24.60
2019-02-16T09:20:09.832Z,24.60
2019-02-16T09:23:30.771Z,24.60
2019-02-16T09:26:48.894Z,24.60
2019-02-16T09:29:53.910Z,24.60
2019-02-16T09:33:01.069Z,24.60
2019-02-16T09:36:10.855Z,24.60
2019-02-16T09:39:26.945Z,24.60
2019-02-16T09:42:37.474Z,24.60
2019-02-16T09:45:38.940Z,24.60
2019-02-16T09:49:01.416Z,24.60
2019-02-16T09:52:03.888Z,24.60
2019-02-16T09:55:11.173Z,24.60
2019-02-16T09:58:21.268Z,24.60
2019-02-16T10:01:46.549Z,24.60
2019-02-16T10:04:48.032Z,24.60
2019-02-16T10:08:00.466Z,24.60
2019-02-16T10:11:02.504Z,24.60
2019-02-16T10:14:12.419Z,24.60
2019-02-16T10:17:22.566Z,24.60
2019-02-16T10:20:32.253Z,24.60
2019-02-16T10:24:27.747Z,24.60
2019-02-16T10:27:19.165Z,24.60
2019-02-16T10:30:43.392Z,24.60
2019-02-16T10:34:00.011Z,24.60
2019-02-16T10:37:22.651Z,24.60
2019-02-16T10:40:57.361Z,24.60
2019-02-16T10:44:16.263Z,24.60
2019-02-16T10:47:50.496Z,24.50
2019-02-16T10:51:13.761Z,24.60
2019-02-16T10:54:26.741Z,24.60
2019-02-16T10:57:33.266Z,24.60
2019-02-16T11:00:51.280Z,24.50
2019-02-16T11:04:06.911Z,24.60
2019-02-16T11:07:19.953Z,24.50
2019-02-16T11:14:10.093Z,24.50
2019-02-16T11:17:30.086Z,24.60
2019-02-16T11:20:45.287Z,24.50
2019-02-16T11:27:56.404Z,24.50
2019-02-16T11:31:23.470Z,24.50
2019-02-16T11:34:43.169Z,24.50
2019-02-16T11:38:03.665Z,24.50
2019-02-16T11:41:37.491Z,24.50
2019-02-16T11:55:32.053Z,24.50
2019-02-16T11:58:47.628Z,24.50
2019-02-16T12:02:05.977Z,24.60
2019-02-16T12:05:51.264Z,24.60
2019-02-16T12:09:02.123Z,24.60
2019-02-16T12:12:42.122Z,24.60
2019-02-16T12:16:17.135Z,24.60
2019-02-16T12:31:19.766Z,24.60
2019-02-16T12:39:17.104Z,24.60
2019-02-16T12:42:24.264Z,24.60
2019-02-16T12:45:51.585Z,24.60
2019-02-16T12:49:09.391Z,24.50
2019-02-16T12:56:29.442Z,24.50
2019-02-16T12:59:45.930Z,24.50
2019-02-16T13:03:10.275Z,24.50
2019-02-16T13:06:19.296Z,24.50
2019-02-16T13:09:53.643Z,24.50
2019-02-16T13:13:16.706Z,24.50
2019-02-16T13:19:45.350Z,24.50
2019-02-16T13:22:47.789Z,24.50
2019-02-16T13:26:19.502Z,24.50
2019-02-16T13:29:32.849Z,24.50
2019-02-16T13:32:46.393Z,24.50
2019-02-16T13:35:58.207Z,24.50
2019-02-16T13:39:10.685Z,24.50
2019-02-16T13:42:31.834Z,24.50
2019-02-16T13:45:44.994Z,24.50
2019-02-16T13:48:43.742Z,24.50
2019-02-16T13:51:55.783Z,24.50
2019-02-16T13:55:06.867Z,24.50
2019-02-16T13:58:17.648Z,24.50
2019-02-16T14:01:17.055Z,24.50
2019-02-16T14:04:20.431Z,24.50
2019-02-16T14:07:36.518Z,24.50
2019-02-16T14:10:44.541Z,24.50
2019-02-16T14:13:51.764Z,24.50
2019-02-16T14:16:59.292Z,24.50
2019-02-16T14:19:51.209Z,24.50
2019-02-16T14:22:57.700Z,24.50
2019-02-16T14:25:50.732Z,24.50
2019-02-16T14:28:53.197Z,24.50
2019-02-16T14:32:12.653Z,24.50
2019-02-16T14:34:52.190Z,24.50
2019-02-16T14:37:56.478Z,24.50
2019-02-16T14:41:03.561Z,24.60
2019-02-16T14:44:03.570Z,24.50
2019-02-16T14:46:57.276Z,24.50
2019-02-16T14:49:59.613Z,24.60
2019-02-16T14:53:05.755Z,24.50
2019-02-16T14:56:10.797Z,24.50
2019-02-16T14:59:13.402Z,24.50
2019-02-16T15:02:06.339Z,24.50
2019-02-16T15:04:59.736Z,24.60
2019-02-16T15:08:08.011Z,24.60
2019-02-16T15:11:03.059Z,24.50
2019-02-16T15:14:02.476Z,24.60
2019-02-16T15:16:52.955Z,24.50
2019-02-16T15:19:46.360Z,24.50
2019-02-16T15:22:46.520Z,24.60
2019-02-16T15:25:43.651Z,24.60
2019-02-16T15:28:42.646Z,24.50
2019-02-16T15:31:36.274Z,24.60
2019-02-16T15:34:34.090Z,24.50
2019-02-16T15:37:31.872Z,24.60
2019-02-16T15:40:24.478Z,24.50
2019-02-16T15:43:19.513Z,24.60
2019-02-16T15:46:21.003Z,24.60
2019-02-16T15:49:18.094Z,24.60
2019-02-16T15:52:23.402Z,24.50
2019-02-16T15:55:18.765Z,24.50
2019-02-16T15:58:15.519Z,24.60
2019-02-16T16:01:17.462Z,24.50
2019-02-16T16:04:32.209Z,24.60
2019-02-16T16:07:35.768Z,24.50
2019-02-16T16:11:05.262Z,24.60
2019-02-16T16:14:26.236Z,24.60
2019-02-16T16:18:05.332Z,24.50
2019-02-16T16:21:33.125Z,24.50
2019-02-16T16:25:23.738Z,24.50
2019-02-16T16:28:50.796Z,24.50
2019-02-16T16:32:17.688Z,24.50
2019-02-16T16:35:43.376Z,24.50
2019-02-16T16:39:00.521Z,24.60
2019-02-16T16:42:41.302Z,24.60
2019-02-16T16:46:25.644Z,24.50
2019-02-16T16:49:49.124Z,24.50
2019-02-16T16:53:04.893Z,24.60
2019-02-16T16:56:29.712Z,24.50
2019-02-16T16:59:48.873Z,24.50
2019-02-16T17:03:12.140Z,24.60
2019-02-16T17:06:31.525Z,24.60
2019-02-16T17:09:33.312Z,24.60
2019-02-16T17:12:53.847Z,24.60
2019-02-16T17:16:03.104Z,24.60
2019-02-16T17:19:10.979Z,24.60
2019-02-16T17:22:22.860Z,24.60
2019-02-16T17:25:26.010Z,24.60
2019-02-16T17:28:38.862Z,24.60
2019-02-16T17:31:57.844Z,24.60
2019-02-16T17:35:25.956Z,24.60
2019-02-16T17:38:26.293Z,24.60
2019-02-16T17:41:48.006Z,24.60
2019-02-16T17:44:57.224Z,24.60
2019-02-16T17:48:13.286Z,24.60
2019-02-16T17:51:24.578Z,24.70
2019-02-16T17:54:33.323Z,24.60
2019-02-16T17:57:52.075Z,24.60
2019-02-16T18:01:11.138Z,24.60
2019-02-16T18:04:29.415Z,24.70
2019-02-16T18:07:42.431Z,24.60
2019-02-16T18:10:49.216Z,24.70
2019-02-16T18:13:59.769Z,24.60
2019-02-16T18:17:21.936Z,24.60
2019-02-16T18:20:42.691Z,24.60
2019-02-16T18:23:49.240Z,24.60
2019-02-16T18:27:11.387Z,24.60
2019-02-16T18:30:32.994Z,24.60
2019-02-16T18:33:48.386Z,24.60
2019-02-16T18:37:06.442Z,24.60
2019-02-16T18:40:19.175Z,24.50
2019-02-16T18:43:38.397Z,24.50
2019-02-16T18:46:54.189Z,24.50
2019-02-16T18:50:18.239Z,24.50
2019-02-16T18:53:47.420Z,24.50
2019-02-16T18:57:06.102Z,24.60
2019-02-16T19:00:22.911Z,24.50
2019-02-16T19:03:45.517Z,24.50
2019-02-16T19:07:12.639Z,24.50
2019-02-16T19:10:31.407Z,24.50
2019-02-16T19:13:40.308Z,24.50
2019-02-16T19:16:56.251Z,24.60
2019-02-16T19:20:51.762Z,24.60
2019-02-16T19:24:14.894Z,24.60
2019-02-16T19:27:16.992Z,24.60
2019-02-16T19:30:29.061Z,24.60
2019-02-16T19:34:03.702Z,24.50
2019-02-16T19:37:23.757Z,24.50
2019-02-16T19:40:34.256Z,24.50
2019-02-16T19:43:48.380Z,24.50
2019-02-16T19:46:57.721Z,24.50
2019-02-16T19:50:13.083Z,24.60
2019-02-16T19:53:23.736Z,24.50
2019-02-16T19:56:45.552Z,24.50
2019-02-16T19:59:50.722Z,24.50
2019-02-16T20:03:12.601Z,24.50
2019-02-16T20:06:33.183Z,24.60
2019-02-16T20:09:49.060Z,24.60
2019-02-16T20:13:08.678Z,24.60
2019-02-16T20:16:29.772Z,24.60
2019-02-16T20:19:39.760Z,24.50
2019-02-16T20:23:06.015Z,24.60
2019-02-16T20:26:15.852Z,24.60
2019-02-16T20:29:27.183Z,24.60
2019-02-16T20:32:35.256Z,24.60
2019-02-16T20:35:45.117Z,24.50
2019-02-16T20:39:15.961Z,24.60
2019-02-16T20:42:45.854Z,24.50
2019-02-16T20:46:16.326Z,24.50
2019-02-16T20:49:48.742Z,24.50
2019-02-16T20:52:57.097Z,24.60
2019-02-16T20:56:18.713Z,24.60
2019-02-16T20:59:41.639Z,24.60
2019-02-16T21:03:07.958Z,24.50
2019-02-16T21:06:26.888Z,24.50
2019-02-16T21:09:53.845Z,24.50
2019-02-16T21:12:59.772Z,24.60
2019-02-16T21:16:23.882Z,24.60
2019-02-16T21:19:41.410Z,24.60
2019-02-16T21:23:06.536Z,24.60
2019-02-16T21:26:19.994Z,24.60
2019-02-16T21:29:42.966Z,24.60
2019-02-16T21:32:35.595Z,24.50
2019-02-16T21:35:49.939Z,24.50
2019-02-16T21:39:12.784Z,24.50
2019-02-16T21:42:25.613Z,24.50
2019-02-16T21:45:47.649Z,24.50
2019-02-16T21:49:16.616Z,24.50
2019-02-16T21:52:42.322Z,24.50
2019-02-16T21:55:52.757Z,24.50
2019-02-16T21:59:20.534Z,24.50
2019-02-16T22:02:35.202Z,24.50
2019-02-16T22:06:04.628Z,24.50
2019-02-16T22:09:38.659Z,24.50
2019-02-16T22:13:01.261Z,24.50
2019-02-16T22:15:58.364Z,24.50
2019-02-16T22:18:56.908Z,24.50
2019-02-16T22:21:56.155Z,24.50
2019-02-16T22:25:12.023Z,24.50
2019-02-16T22:28:04.896Z,24.50
2019-02-16T22:31:05.073Z,24.50
2019-02-16T22:34:06.072Z,24.50
2019-02-16T22:37:18.229Z,24.50
2019-02-16T22:40:42.454Z,24.50
2019-02-16T22:43:54.037Z,24.50
2019-02-16T22:47:17.363Z,24.50
2019-02-16T22:50:17.566Z,24.50
2019-02-16T22:53:24.332Z,24.50
2019-02-16T22:56:36.621Z,24.50
2019-02-16T22:59:34.725Z,24.50
2019-02-16T23:02:51.188Z,24.50
2019-02-16T23:06:11.127Z,24.50
2019-02-16T23:09:28.698Z,24.40
2019-02-16T23:12:28.434Z,24.40
2019-02-16T23:15:28.096Z,24.40
2019-02-16T23:19:05.636Z,24.40
2019-02-16T23:22:06.403Z,24.40
2019-02-16T23:25:08.150Z,24.50
2019-02-16T23:28:03.586Z,24.40
2019-02-16T23:31:20.121Z,24.40
2019-02-16T23:34:16.240Z,24.40
2019-02-16T23:37:18.187Z,24.40
2019-02-16T23:40:14.515Z,24.40
2019-02-16T23:43:18.432Z,24.40
2019-02-16T23:46:31.021Z,24.40
2019-02-16T23:49:39.390Z,24.40
2019-02-16T23:52:46.179Z,24.40
2019-02-16T23:56:02.781Z,24.40
2019-02-16T23:59:11.970Z,24.40
